2FL4 weather

Brady Heliport
Juna Beach, Florida, United States

Public forecast

Using degrees Fahrenheit for public forecast. Weather courtesy of forecast.io.

Closest aviation weather report (METAR) to Brady Heliport

Closest report is Palm Beach International Airport, 10.4 nm (19.3 km) S. Retrieved 2019/10/20 22:23 UTC (11 minutes ago):

KPBI 202223Z 26008KT 10SM SCT035 BKN080 BKN170 29/23 A2993 RMK AO2 LTG DSNT E TSE23 CB DSNT E T02940228

Closest aviation forecast (TAF) to Brady Heliport

Closest forecast is Palm Beach International Airport, 10.4 nm (19.3 km) S. Retrieved 2019/10/20 18:31 UTC (4 hours ago):

TAF KPBI 201726Z 2018/2118 25010KT P6SM VCTS SCT035CB BKN120 FM210100 VRB03KT P6SM FEW050 SCT250 FM211400 15007KT P6SM SCT035